sensor_id;sensor_type;location;lat;lon;timestamp;temperature;humidity
38464;DHT22;24243;51.956;5.902;2022-12-29T00:01:18;19.50;55.30
38464;DHT22;24243;51.956;5.902;2022-12-29T00:03:46;19.40;55.30
38464;DHT22;24243;51.956;5.902;2022-12-29T00:06:12;19.40;55.30
38464;DHT22;24243;51.956;5.902;2022-12-29T00:08:37;19.50;55.40
38464;DHT22;24243;51.956;5.902;2022-12-29T00:11:14;19.40;55.30
38464;DHT22;24243;51.956;5.902;2022-12-29T00:13:40;19.40;55.30
38464;DHT22;24243;51.956;5.902;2022-12-29T00:16:25;19.50;55.30
38464;DHT22;24243;51.956;5.902;2022-12-29T00:18:51;19.40;55.30
38464;DHT22;24243;51.956;5.902;2022-12-29T00:21:17;19.40;55.30
38464;DHT22;24243;51.956;5.902;2022-12-29T00:24:01;19.50;55.30
38464;DHT22;24243;51.956;5.902;2022-12-29T00:26:53;19.50;55.30
38464;DHT22;24243;51.956;5.902;2022-12-29T00:29:39;19.40;55.30
38464;DHT22;24243;51.956;5.902;2022-12-29T00:32:22;19.40;55.50
38464;DHT22;24243;51.956;5.902;2022-12-29T00:35:08;19.40;55.50
38464;DHT22;24243;51.956;5.902;2022-12-29T00:37:37;19.40;55.50
38464;DHT22;24243;51.956;5.902;2022-12-29T00:40:22;19.40;55.40
38464;DHT22;24243;51.956;5.902;2022-12-29T00:43:06;19.40;55.40
38464;DHT22;24243;51.956;5.902;2022-12-29T00:45:50;19.50;55.40
38464;DHT22;24243;51.956;5.902;2022-12-29T00:48:16;19.50;55.40
38464;DHT22;24243;51.956;5.902;2022-12-29T00:51:01;19.40;55.40
38464;DHT22;24243;51.956;5.902;2022-12-29T00:53:27;19.40;55.40
38464;DHT22;24243;51.956;5.902;2022-12-29T00:55:52;19.40;55.40
38464;DHT22;24243;51.956;5.902;2022-12-29T00:58:18;19.40;55.40
38464;DHT22;24243;51.956;5.902;2022-12-29T01:00:43;19.40;55.40
38464;DHT22;24243;51.956;5.902;2022-12-29T01:03:09;19.40;55.30
38464;DHT22;24243;51.956;5.902;2022-12-29T01:05:38;19.40;55.30
38464;DHT22;24243;51.956;5.902;2022-12-29T01:08:03;19.40;55.30
38464;DHT22;24243;51.956;5.902;2022-12-29T01:10:29;19.40;55.30
38464;DHT22;24243;51.956;5.902;2022-12-29T01:12:54;19.40;55.30
38464;DHT22;24243;51.956;5.902;2022-12-29T01:15:20;19.40;55.30
38464;DHT22;24243;51.956;5.902;2022-12-29T01:17:46;19.40;55.30
38464;DHT22;24243;51.956;5.902;2022-12-29T01:20:11;19.40;55.30
38464;DHT22;24243;51.956;5.902;2022-12-29T01:22:37;19.40;55.30
38464;DHT22;24243;51.956;5.902;2022-12-29T01:25:03;19.40;55.30
38464;DHT22;24243;51.956;5.902;2022-12-29T01:27:29;19.40;55.30
38464;DHT22;24243;51.956;5.902;2022-12-29T01:29:54;19.40;55.30
38464;DHT22;24243;51.956;5.902;2022-12-29T01:32:20;19.40;55.20
38464;DHT22;24243;51.956;5.902;2022-12-29T01:34:45;19.40;55.20
38464;DHT22;24243;51.956;5.902;2022-12-29T01:37:11;19.40;55.20
38464;DHT22;24243;51.956;5.902;2022-12-29T01:39:37;19.40;55.20
38464;DHT22;24243;51.956;5.902;2022-12-29T01:42:02;19.30;55.20
38464;DHT22;24243;51.956;5.902;2022-12-29T01:44:48;19.40;55.20
38464;DHT22;24243;51.956;5.902;2022-12-29T01:50:01;19.30;55.10
38464;DHT22;24243;51.956;5.902;2022-12-29T01:52:28;19.40;55.10
38464;DHT22;24243;51.956;5.902;2022-12-29T01:54:55;19.30;55.10
38464;DHT22;24243;51.956;5.902;2022-12-29T01:57:25;19.30;55.10
38464;DHT22;24243;51.956;5.902;2022-12-29T01:59:54;19.30;55.10
38464;DHT22;24243;51.956;5.902;2022-12-29T02:02:22;19.30;55.00
38464;DHT22;24243;51.956;5.902;2022-12-29T02:04:48;19.30;55.00
38464;DHT22;24243;51.956;5.902;2022-12-29T02:07:17;19.30;55.00
38464;DHT22;24243;51.956;5.902;2022-12-29T02:09:43;19.30;55.00
38464;DHT22;24243;51.956;5.902;2022-12-29T02:12:11;19.30;55.00
38464;DHT22;24243;51.956;5.902;2022-12-29T02:14:37;19.30;55.00
38464;DHT22;24243;51.956;5.902;2022-12-29T02:22:23;19.20;54.90
38464;DHT22;24243;51.956;5.902;2022-12-29T02:27:53;19.30;54.90
38464;DHT22;24243;51.956;5.902;2022-12-29T02:30:29;19.30;54.90
38464;DHT22;24243;51.956;5.902;2022-12-29T02:33:13;19.20;54.90
38464;DHT22;24243;51.956;5.902;2022-12-29T02:38:25;19.20;55.50
38464;DHT22;24243;51.956;5.902;2022-12-29T02:41:00;19.20;54.90
38464;DHT22;24243;51.956;5.902;2022-12-29T02:45:57;19.20;54.90
38464;DHT22;24243;51.956;5.902;2022-12-29T02:48:31;19.20;54.80
38464;DHT22;24243;51.956;5.902;2022-12-29T02:53:23;19.20;54.80
38464;DHT22;24243;51.956;5.902;2022-12-29T02:56:09;19.20;54.80
38464;DHT22;24243;51.956;5.902;2022-12-29T02:58:34;19.20;54.80
38464;DHT22;24243;51.956;5.902;2022-12-29T03:01:04;19.20;54.80
38464;DHT22;24243;51.956;5.902;2022-12-29T03:13:45;19.20;54.70
38464;DHT22;24243;51.956;5.902;2022-12-29T03:16:35;19.20;54.70
38464;DHT22;24243;51.956;5.902;2022-12-29T03:19:11;19.20;54.70
38464;DHT22;24243;51.956;5.902;2022-12-29T03:21:43;19.20;54.70
38464;DHT22;24243;51.956;5.902;2022-12-29T03:24:29;19.20;54.70
38464;DHT22;24243;51.956;5.902;2022-12-29T03:26:56;19.20;54.70
38464;DHT22;24243;51.956;5.902;2022-12-29T03:29:23;19.10;54.60
38464;DHT22;24243;51.956;5.902;2022-12-29T03:31:49;19.20;54.70
38464;DHT22;24243;51.956;5.902;2022-12-29T03:34:16;19.10;54.60
38464;DHT22;24243;51.956;5.902;2022-12-29T03:36:44;19.10;54.60
38464;DHT22;24243;51.956;5.902;2022-12-29T03:39:12;19.10;54.60
38464;DHT22;24243;51.956;5.902;2022-12-29T03:41:40;19.10;54.60
38464;DHT22;24243;51.956;5.902;2022-12-29T03:44:06;19.10;54.60
38464;DHT22;24243;51.956;5.902;2022-12-29T03:46:32;19.10;54.60
38464;DHT22;24243;51.956;5.902;2022-12-29T03:48:58;19.10;54.60
38464;DHT22;24243;51.956;5.902;2022-12-29T03:51:23;19.10;54.60
38464;DHT22;24243;51.956;5.902;2022-12-29T03:53:49;19.10;54.60
38464;DHT22;24243;51.956;5.902;2022-12-29T03:56:14;19.10;54.50
38464;DHT22;24243;51.956;5.902;2022-12-29T03:58:40;19.10;54.50
38464;DHT22;24243;51.956;5.902;2022-12-29T04:01:06;19.10;54.50
38464;DHT22;24243;51.956;5.902;2022-12-29T04:03:31;19.10;54.50
38464;DHT22;24243;51.956;5.902;2022-12-29T04:05:57;19.10;54.50
38464;DHT22;24243;51.956;5.902;2022-12-29T04:08:23;19.10;54.50
38464;DHT22;24243;51.956;5.902;2022-12-29T04:10:49;19.10;54.50
38464;DHT22;24243;51.956;5.902;2022-12-29T04:13:15;19.10;54.50
38464;DHT22;24243;51.956;5.902;2022-12-29T04:15:40;19.10;54.50
38464;DHT22;24243;51.956;5.902;2022-12-29T04:18:07;19.10;54.50
38464;DHT22;24243;51.956;5.902;2022-12-29T04:20:33;19.10;54.50
38464;DHT22;24243;51.956;5.902;2022-12-29T04:23:17;19.10;54.50
38464;DHT22;24243;51.956;5.902;2022-12-29T04:25:45;19.10;54.40
38464;DHT22;24243;51.956;5.902;2022-12-29T04:28:10;19.10;54.40
38464;DHT22;24243;51.956;5.902;2022-12-29T04:30:36;19.10;54.40
38464;DHT22;24243;51.956;5.902;2022-12-29T04:33:01;19.10;54.40
38464;DHT22;24243;51.956;5.902;2022-12-29T04:35:27;19.00;54.30
38464;DHT22;24243;51.956;5.902;2022-12-29T04:37:52;19.10;54.30
38464;DHT22;24243;51.956;5.902;2022-12-29T04:40:18;19.10;54.30
38464;DHT22;24243;51.956;5.902;2022-12-29T04:42:44;19.10;54.30
38464;DHT22;24243;51.956;5.902;2022-12-29T04:45:09;19.00;54.30
38464;DHT22;24243;51.956;5.902;2022-12-29T04:47:35;19.00;54.30
38464;DHT22;24243;51.956;5.902;2022-12-29T04:50:01;19.00;54.30
38464;DHT22;24243;51.956;5.902;2022-12-29T04:52:26;19.00;54.30
38464;DHT22;24243;51.956;5.902;2022-12-29T04:54:52;19.00;54.30
38464;DHT22;24243;51.956;5.902;2022-12-29T04:57:17;19.00;54.20
38464;DHT22;24243;51.956;5.902;2022-12-29T04:59:43;19.00;54.30
38464;DHT22;24243;51.956;5.902;2022-12-29T05:02:09;19.00;54.30
38464;DHT22;24243;51.956;5.902;2022-12-29T05:04:34;19.00;54.30
38464;DHT22;24243;51.956;5.902;2022-12-29T05:07:00;19.00;54.30
38464;DHT22;24243;51.956;5.902;2022-12-29T05:09:25;19.00;54.20
38464;DHT22;24243;51.956;5.902;2022-12-29T05:11:51;19.00;54.20
38464;DHT22;24243;51.956;5.902;2022-12-29T05:14:16;19.00;54.20
38464;DHT22;24243;51.956;5.902;2022-12-29T05:16:42;19.00;54.20
38464;DHT22;24243;51.956;5.902;2022-12-29T05:19:08;19.00;54.20
38464;DHT22;24243;51.956;5.902;2022-12-29T05:21:33;19.00;54.20
38464;DHT22;24243;51.956;5.902;2022-12-29T05:23:59;19.00;54.20
38464;DHT22;24243;51.956;5.902;2022-12-29T05:26:24;19.00;54.20
38464;DHT22;24243;51.956;5.902;2022-12-29T05:28:50;19.00;54.20
38464;DHT22;24243;51.956;5.902;2022-12-29T05:31:15;19.00;54.20
38464;DHT22;24243;51.956;5.902;2022-12-29T05:33:41;19.00;54.20
38464;DHT22;24243;51.956;5.902;2022-12-29T05:36:07;19.00;54.20
38464;DHT22;24243;51.956;5.902;2022-12-29T05:38:33;19.00;54.20
38464;DHT22;24243;51.956;5.902;2022-12-29T05:40:59;19.00;54.20
38464;DHT22;24243;51.956;5.902;2022-12-29T05:43:25;18.90;54.20
38464;DHT22;24243;51.956;5.902;2022-12-29T05:45:51;18.90;54.20
38464;DHT22;24243;51.956;5.902;2022-12-29T05:48:17;18.90;54.20
38464;DHT22;24243;51.956;5.902;2022-12-29T05:50:42;18.90;54.20
38464;DHT22;24243;51.956;5.902;2022-12-29T05:53:08;18.90;54.20
38464;DHT22;24243;51.956;5.902;2022-12-29T05:55:34;18.90;54.20
38464;DHT22;24243;51.956;5.902;2022-12-29T05:57:59;18.90;54.20
38464;DHT22;24243;51.956;5.902;2022-12-29T06:00:25;18.90;54.20
38464;DHT22;24243;51.956;5.902;2022-12-29T06:02:50;18.90;54.20
38464;DHT22;24243;51.956;5.902;2022-12-29T06:05:16;18.90;54.20
38464;DHT22;24243;51.956;5.902;2022-12-29T06:07:42;18.90;54.20
38464;DHT22;24243;51.956;5.902;2022-12-29T06:10:08;18.90;54.20
38464;DHT22;24243;51.956;5.902;2022-12-29T06:12:33;18.90;54.20
38464;DHT22;24243;51.956;5.902;2022-12-29T06:14:59;18.90;54.20
38464;DHT22;24243;51.956;5.902;2022-12-29T06:17:24;18.90;54.20
38464;DHT22;24243;51.956;5.902;2022-12-29T06:19:50;18.90;54.20
38464;DHT22;24243;51.956;5.902;2022-12-29T06:22:15;18.90;54.10
38464;DHT22;24243;51.956;5.902;2022-12-29T06:24:41;18.90;54.10
38464;DHT22;24243;51.956;5.902;2022-12-29T06:27:07;18.90;54.20
38464;DHT22;24243;51.956;5.902;2022-12-29T06:29:32;18.90;54.20
38464;DHT22;24243;51.956;5.902;2022-12-29T06:31:58;18.90;54.10
38464;DHT22;24243;51.956;5.902;2022-12-29T06:34:24;18.90;54.20
38464;DHT22;24243;51.956;5.902;2022-12-29T06:36:50;18.90;54.10
38464;DHT22;24243;51.956;5.902;2022-12-29T06:39:15;18.90;54.10
38464;DHT22;24243;51.956;5.902;2022-12-29T06:41:41;18.80;54.10
38464;DHT22;24243;51.956;5.902;2022-12-29T06:44:06;18.80;54.10
38464;DHT22;24243;51.956;5.902;2022-12-29T06:46:32;18.80;54.10
38464;DHT22;24243;51.956;5.902;2022-12-29T06:48:58;18.80;54.10
38464;DHT22;24243;51.956;5.902;2022-12-29T06:51:23;18.80;54.10
38464;DHT22;24243;51.956;5.902;2022-12-29T06:53:49;18.80;54.10
38464;DHT22;24243;51.956;5.902;2022-12-29T06:56:14;18.80;54.10
38464;DHT22;24243;51.956;5.902;2022-12-29T06:58:40;18.80;54.10
38464;DHT22;24243;51.956;5.902;2022-12-29T07:01:06;18.80;54.10
38464;DHT22;24243;51.956;5.902;2022-12-29T07:03:31;18.80;54.10
38464;DHT22;24243;51.956;5.902;2022-12-29T07:05:57;18.80;54.00
38464;DHT22;24243;51.956;5.902;2022-12-29T07:08:23;18.80;54.00
38464;DHT22;24243;51.956;5.902;2022-12-29T07:10:49;18.80;54.10
38464;DHT22;24243;51.956;5.902;2022-12-29T07:13:14;18.80;54.00
38464;DHT22;24243;51.956;5.902;2022-12-29T07:15:40;18.80;54.00
38464;DHT22;24243;51.956;5.902;2022-12-29T07:18:06;18.80;54.00
38464;DHT22;24243;51.956;5.902;2022-12-29T07:20:31;18.80;54.00
38464;DHT22;24243;51.956;5.902;2022-12-29T07:22:57;18.80;54.00
38464;DHT22;24243;51.956;5.902;2022-12-29T07:25:23;18.80;54.10
38464;DHT22;24243;51.956;5.902;2022-12-29T07:27:49;18.80;54.00
38464;DHT22;24243;51.956;5.902;2022-12-29T07:30:14;18.80;54.00
38464;DHT22;24243;51.956;5.902;2022-12-29T07:32:40;18.80;54.00
38464;DHT22;24243;51.956;5.902;2022-12-29T07:35:05;18.80;54.00
38464;DHT22;24243;51.956;5.902;2022-12-29T07:37:31;18.80;54.00
38464;DHT22;24243;51.956;5.902;2022-12-29T07:39:57;18.80;54.00
38464;DHT22;24243;51.956;5.902;2022-12-29T07:42:22;18.80;54.00
38464;DHT22;24243;51.956;5.902;2022-12-29T07:44:48;18.80;54.00
38464;DHT22;24243;51.956;5.902;2022-12-29T07:47:14;18.80;54.00
38464;DHT22;24243;51.956;5.902;2022-12-29T07:49:39;18.80;54.00
38464;DHT22;24243;51.956;5.902;2022-12-29T07:52:05;18.80;54.00
38464;DHT22;24243;51.956;5.902;2022-12-29T07:54:30;18.80;54.10
38464;DHT22;24243;51.956;5.902;2022-12-29T07:56:56;18.80;54.10
38464;DHT22;24243;51.956;5.902;2022-12-29T07:59:22;18.80;54.10
38464;DHT22;24243;51.956;5.902;2022-12-29T08:01:48;18.80;54.10
38464;DHT22;24243;51.956;5.902;2022-12-29T08:04:14;18.70;54.10
38464;DHT22;24243;51.956;5.902;2022-12-29T08:06:39;18.80;54.20
38464;DHT22;24243;51.956;5.902;2022-12-29T08:09:05;18.80;54.20
38464;DHT22;24243;51.956;5.902;2022-12-29T08:11:31;18.80;54.20
38464;DHT22;24243;51.956;5.902;2022-12-29T08:13:56;18.80;54.20
38464;DHT22;24243;51.956;5.902;2022-12-29T08:16:22;18.80;54.30
38464;DHT22;24243;51.956;5.902;2022-12-29T08:18:48;18.80;54.40
38464;DHT22;24243;51.956;5.902;2022-12-29T08:21:13;18.80;54.40
38464;DHT22;24243;51.956;5.902;2022-12-29T08:23:39;18.70;54.40
38464;DHT22;24243;51.956;5.902;2022-12-29T08:26:05;18.70;54.40
38464;DHT22;24243;51.956;5.902;2022-12-29T08:28:31;18.70;54.50
38464;DHT22;24243;51.956;5.902;2022-12-29T08:30:57;18.70;54.40
38464;DHT22;24243;51.956;5.902;2022-12-29T08:33:23;18.70;54.40
38464;DHT22;24243;51.956;5.902;2022-12-29T08:35:48;18.70;54.40
38464;DHT22;24243;51.956;5.902;2022-12-29T08:38:14;18.70;54.40
38464;DHT22;24243;51.956;5.902;2022-12-29T08:40:40;18.70;54.40
38464;DHT22;24243;51.956;5.902;2022-12-29T08:43:05;18.60;54.30
38464;DHT22;24243;51.956;5.902;2022-12-29T08:45:31;18.60;54.40
38464;DHT22;24243;51.956;5.902;2022-12-29T08:47:57;18.60;54.30
38464;DHT22;24243;51.956;5.902;2022-12-29T08:50:22;18.60;54.30
38464;DHT22;24243;51.956;5.902;2022-12-29T08:52:48;18.60;54.30
38464;DHT22;24243;51.956;5.902;2022-12-29T08:55:13;18.60;54.20
38464;DHT22;24243;51.956;5.902;2022-12-29T08:57:39;18.60;54.20
38464;DHT22;24243;51.956;5.902;2022-12-29T09:00:05;18.60;54.20
38464;DHT22;24243;51.956;5.902;2022-12-29T09:02:31;18.60;54.10
38464;DHT22;24243;51.956;5.902;2022-12-29T09:04:56;18.60;54.10
38464;DHT22;24243;51.956;5.902;2022-12-29T09:07:26;18.60;54.10
38464;DHT22;24243;51.956;5.902;2022-12-29T09:09:51;18.60;54.10
38464;DHT22;24243;51.956;5.902;2022-12-29T09:12:17;18.60;54.10
38464;DHT22;24243;51.956;5.902;2022-12-29T09:14:43;18.60;54.00
38464;DHT22;24243;51.956;5.902;2022-12-29T09:17:09;18.50;53.90
38464;DHT22;24243;51.956;5.902;2022-12-29T09:19:54;18.60;53.90
38464;DHT22;24243;51.956;5.902;2022-12-29T09:22:19;18.60;54.00
38464;DHT22;24243;51.956;5.902;2022-12-29T09:24:45;18.60;54.00
38464;DHT22;24243;51.956;5.902;2022-12-29T09:27:10;18.60;54.00
38464;DHT22;24243;51.956;5.902;2022-12-29T09:29:36;18.60;54.00
38464;DHT22;24243;51.956;5.902;2022-12-29T09:32:02;18.60;54.00
38464;DHT22;24243;51.956;5.902;2022-12-29T09:34:27;18.60;54.00
38464;DHT22;24243;51.956;5.902;2022-12-29T09:36:53;18.60;54.10
38464;DHT22;24243;51.956;5.902;2022-12-29T09:39:18;18.60;54.00
38464;DHT22;24243;51.956;5.902;2022-12-29T09:47:03;18.60;54.00
38464;DHT22;24243;51.956;5.902;2022-12-29T09:49:35;18.60;54.00
38464;DHT22;24243;51.956;5.902;2022-12-29T09:52:06;18.60;54.00
38464;DHT22;24243;51.956;5.902;2022-12-29T09:57:01;18.60;54.00
38464;DHT22;24243;51.956;5.902;2022-12-29T09:59:29;18.60;53.90
38464;DHT22;24243;51.956;5.902;2022-12-29T10:02:04;18.60;53.90
38464;DHT22;24243;51.956;5.902;2022-12-29T10:04:31;18.60;53.90
38464;DHT22;24243;51.956;5.902;2022-12-29T10:06:58;18.60;53.90
38464;DHT22;24243;51.956;5.902;2022-12-29T10:09:37;18.60;53.90
38464;DHT22;24243;51.956;5.902;2022-12-29T10:17:27;18.60;53.90
38464;DHT22;24243;51.956;5.902;2022-12-29T10:24:54;18.50;53.80
38464;DHT22;24243;51.956;5.902;2022-12-29T10:27:21;18.60;53.90
38464;DHT22;24243;51.956;5.902;2022-12-29T10:29:54;18.50;53.80
38464;DHT22;24243;51.956;5.902;2022-12-29T10:34:47;18.50;53.80
38464;DHT22;24243;51.956;5.902;2022-12-29T10:37:23;18.60;54.40
38464;DHT22;24243;51.956;5.902;2022-12-29T10:39:52;18.50;53.70
38464;DHT22;24243;51.956;5.902;2022-12-29T10:42:26;18.50;53.70
38464;DHT22;24243;51.956;5.902;2022-12-29T10:44:53;18.50;53.70
38464;DHT22;24243;51.956;5.902;2022-12-29T10:47:20;18.50;53.70
38464;DHT22;24243;51.956;5.902;2022-12-29T10:49:47;18.50;53.70
38464;DHT22;24243;51.956;5.902;2022-12-29T10:52:13;18.50;53.60
38464;DHT22;24243;51.956;5.902;2022-12-29T10:54:42;18.50;53.60
38464;DHT22;24243;51.956;5.902;2022-12-29T10:57:11;18.50;53.60
38464;DHT22;24243;51.956;5.902;2022-12-29T10:59:39;18.50;53.60
38464;DHT22;24243;51.956;5.902;2022-12-29T11:02:13;18.50;53.60
38464;DHT22;24243;51.956;5.902;2022-12-29T11:07:29;18.50;53.60
38464;DHT22;24243;51.956;5.902;2022-12-29T11:10:14;18.50;53.50
38464;DHT22;24243;51.956;5.902;2022-12-29T11:12:40;18.50;53.40
38464;DHT22;24243;51.956;5.902;2022-12-29T11:22:51;18.50;53.30
38464;DHT22;24243;51.956;5.902;2022-12-29T11:25:17;18.50;53.30
38464;DHT22;24243;51.956;5.902;2022-12-29T11:27:54;18.50;53.30
38464;DHT22;24243;51.956;5.902;2022-12-29T11:30:28;18.50;53.30
38464;DHT22;24243;51.956;5.902;2022-12-29T11:32:57;18.50;53.30
38464;DHT22;24243;51.956;5.902;2022-12-29T11:35:30;18.50;53.30
38464;DHT22;24243;51.956;5.902;2022-12-29T11:37:57;18.50;53.20
38464;DHT22;24243;51.956;5.902;2022-12-29T11:40:23;18.50;53.20
38464;DHT22;24243;51.956;5.902;2022-12-29T11:43:23;18.50;53.20
38464;DHT22;24243;51.956;5.902;2022-12-29T11:45:41;18.50;53.20
38464;DHT22;24243;51.956;5.902;2022-12-29T11:48:17;18.50;53.20
38464;DHT22;24243;51.956;5.902;2022-12-29T11:50:48;18.50;53.20
38464;DHT22;24243;51.956;5.902;2022-12-29T11:55:41;18.50;53.20
38464;DHT22;24243;51.956;5.902;2022-12-29T11:58:15;18.50;53.20
38464;DHT22;24243;51.956;5.902;2022-12-29T12:00:41;18.50;53.10
38464;DHT22;24243;51.956;5.902;2022-12-29T12:03:28;18.50;53.10
38464;DHT22;24243;51.956;5.902;2022-12-29T12:05:57;18.50;53.70
38464;DHT22;24243;51.956;5.902;2022-12-29T12:08:38;18.50;53.00
38464;DHT22;24243;51.956;5.902;2022-12-29T12:11:16;18.50;53.00
38464;DHT22;24243;51.956;5.902;2022-12-29T12:13:45;18.50;53.00
38464;DHT22;24243;51.956;5.902;2022-12-29T12:16:21;18.50;53.00
38464;DHT22;24243;51.956;5.902;2022-12-29T12:18:48;18.50;53.00
38464;DHT22;24243;51.956;5.902;2022-12-29T12:21:21;18.50;52.90
38464;DHT22;24243;51.956;5.902;2022-12-29T12:26:43;18.50;53.00
38464;DHT22;24243;51.956;5.902;2022-12-29T12:29:14;18.60;53.00
38464;DHT22;24243;51.956;5.902;2022-12-29T12:34:09;18.60;53.00
38464;DHT22;24243;51.956;5.902;2022-12-29T12:42:02;18.60;52.90
38464;DHT22;24243;51.956;5.902;2022-12-29T12:44:44;18.70;53.00
38464;DHT22;24243;51.956;5.902;2022-12-29T12:49:49;18.70;52.80
38464;DHT22;24243;51.956;5.902;2022-12-29T12:52:29;18.70;52.80
38464;DHT22;24243;51.956;5.902;2022-12-29T12:55:02;18.70;52.80
38464;DHT22;24243;51.956;5.902;2022-12-29T12:57:44;18.70;52.70
38464;DHT22;24243;51.956;5.902;2022-12-29T13:00:16;18.70;52.70
38464;DHT22;24243;51.956;5.902;2022-12-29T13:10:42;18.70;52.40
38464;DHT22;24243;51.956;5.902;2022-12-29T13:13:30;18.70;52.40
38464;DHT22;24243;51.956;5.902;2022-12-29T13:21:00;18.70;52.40
38464;DHT22;24243;51.956;5.902;2022-12-29T13:28:51;18.80;52.50
38464;DHT22;24243;51.956;5.902;2022-12-29T13:36:38;18.80;52.50
38464;DHT22;24243;51.956;5.902;2022-12-29T13:41:44;18.90;52.50
38464;DHT22;24243;51.956;5.902;2022-12-29T13:44:16;18.90;52.50
38464;DHT22;24243;51.956;5.902;2022-12-29T13:46:43;18.90;52.50
38464;DHT22;24243;51.956;5.902;2022-12-29T13:49:13;19.00;52.50
38464;DHT22;24243;51.956;5.902;2022-12-29T13:51:55;19.00;52.50
38464;DHT22;24243;51.956;5.902;2022-12-29T13:57:08;19.10;52.60
38464;DHT22;24243;51.956;5.902;2022-12-29T13:59:52;19.10;52.60
38464;DHT22;24243;51.956;5.902;2022-12-29T14:02:26;19.10;52.50
38464;DHT22;24243;51.956;5.902;2022-12-29T14:05:00;19.10;52.50
38464;DHT22;24243;51.956;5.902;2022-12-29T14:07:26;19.20;52.60
38464;DHT22;24243;51.956;5.902;2022-12-29T14:09:56;19.20;52.50
38464;DHT22;24243;51.956;5.902;2022-12-29T14:12:32;19.20;52.60
38464;DHT22;24243;51.956;5.902;2022-12-29T14:15:05;19.20;52.50
38464;DHT22;24243;51.956;5.902;2022-12-29T14:17:32;19.20;52.50
38464;DHT22;24243;51.956;5.902;2022-12-29T14:19:58;19.30;52.60
38464;DHT22;24243;51.956;5.902;2022-12-29T14:22:27;19.30;52.50
38464;DHT22;24243;51.956;5.902;2022-12-29T14:24:52;19.30;52.50
38464;DHT22;24243;51.956;5.902;2022-12-29T14:34:54;19.30;52.40
38464;DHT22;24243;51.956;5.902;2022-12-29T14:37:38;19.40;52.40
38464;DHT22;24243;51.956;5.902;2022-12-29T14:40:05;19.30;52.40
38464;DHT22;24243;51.956;5.902;2022-12-29T14:42:32;19.40;52.40
38464;DHT22;24243;51.956;5.902;2022-12-29T14:47:39;19.40;52.40
38464;DHT22;24243;51.956;5.902;2022-12-29T14:50:07;19.40;52.30
38464;DHT22;24243;51.956;5.902;2022-12-29T14:52:41;19.40;52.40
38464;DHT22;24243;51.956;5.902;2022-12-29T14:57:40;19.40;52.30
38464;DHT22;24243;51.956;5.902;2022-12-29T15:02:33;19.40;52.20
38464;DHT22;24243;51.956;5.902;2022-12-29T15:05:00;19.40;52.20
38464;DHT22;24243;51.956;5.902;2022-12-29T15:07:27;19.40;52.10
38464;DHT22;24243;51.956;5.902;2022-12-29T15:09:56;19.40;52.10
38464;DHT22;24243;51.956;5.902;2022-12-29T15:12:40;19.40;52.10
38464;DHT22;24243;51.956;5.902;2022-12-29T15:15:20;19.40;52.10
38464;DHT22;24243;51.956;5.902;2022-12-29T15:17:46;19.40;52.10
38464;DHT22;24243;51.956;5.902;2022-12-29T15:20:26;19.40;52.00
38464;DHT22;24243;51.956;5.902;2022-12-29T15:23:02;19.40;52.00
38464;DHT22;24243;51.956;5.902;2022-12-29T15:25:28;19.40;52.00
38464;DHT22;24243;51.956;5.902;2022-12-29T15:27:56;19.40;52.00
38464;DHT22;24243;51.956;5.902;2022-12-29T15:30:22;19.40;52.00
38464;DHT22;24243;51.956;5.902;2022-12-29T15:32:48;19.40;52.00
38464;DHT22;24243;51.956;5.902;2022-12-29T15:37:49;19.40;52.00
38464;DHT22;24243;51.956;5.902;2022-12-29T15:40:25;19.40;52.00
38464;DHT22;24243;51.956;5.902;2022-12-29T15:42:58;19.40;52.00
38464;DHT22;24243;51.956;5.902;2022-12-29T15:45:30;19.40;52.00
38464;DHT22;24243;51.956;5.902;2022-12-29T15:47:57;19.40;52.00
38464;DHT22;24243;51.956;5.902;2022-12-29T15:50:26;19.40;52.10
38464;DHT22;24243;51.956;5.902;2022-12-29T15:52:52;19.40;52.10
38464;DHT22;24243;51.956;5.902;2022-12-29T15:55:19;19.40;52.10
38464;DHT22;24243;51.956;5.902;2022-12-29T15:57:45;19.40;52.10
38464;DHT22;24243;51.956;5.902;2022-12-29T16:00:24;19.40;52.10
38464;DHT22;24243;51.956;5.902;2022-12-29T16:02:51;19.40;52.10
38464;DHT22;24243;51.956;5.902;2022-12-29T16:05:17;19.40;52.10
38464;DHT22;24243;51.956;5.902;2022-12-29T16:07:54;19.40;52.10
38464;DHT22;24243;51.956;5.902;2022-12-29T16:10:22;19.40;52.20
38464;DHT22;24243;51.956;5.902;2022-12-29T16:12:50;19.40;52.20
38464;DHT22;24243;51.956;5.902;2022-12-29T16:15:15;19.40;52.20
38464;DHT22;24243;51.956;5.902;2022-12-29T16:17:50;19.40;52.20
38464;DHT22;24243;51.956;5.902;2022-12-29T16:20:22;19.40;52.20
38464;DHT22;24243;51.956;5.902;2022-12-29T16:22:49;19.40;52.20
38464;DHT22;24243;51.956;5.902;2022-12-29T16:25:19;19.40;52.20
38464;DHT22;24243;51.956;5.902;2022-12-29T16:27:46;19.40;52.30
38464;DHT22;24243;51.956;5.902;2022-12-29T16:32:46;19.40;52.30
38464;DHT22;24243;51.956;5.902;2022-12-29T16:35:20;19.40;52.30
38464;DHT22;24243;51.956;5.902;2022-12-29T16:37:46;19.40;52.30
38464;DHT22;24243;51.956;5.902;2022-12-29T16:40:33;19.40;52.40
38464;DHT22;24243;51.956;5.902;2022-12-29T16:43:02;19.40;52.40
38464;DHT22;24243;51.956;5.902;2022-12-29T16:50:37;19.50;52.50
38464;DHT22;24243;51.956;5.902;2022-12-29T16:53:03;19.50;52.60
38464;DHT22;24243;51.956;5.902;2022-12-29T16:55:29;19.50;52.60
38464;DHT22;24243;51.956;5.902;2022-12-29T16:57:55;19.50;52.60
38464;DHT22;24243;51.956;5.902;2022-12-29T17:00:23;19.50;52.60
38464;DHT22;24243;51.956;5.902;2022-12-29T17:02:49;19.50;52.70
38464;DHT22;24243;51.956;5.902;2022-12-29T17:05:16;19.50;52.70
38464;DHT22;24243;51.956;5.902;2022-12-29T17:07:43;19.50;52.70
38464;DHT22;24243;51.956;5.902;2022-12-29T17:10:09;19.50;52.70
38464;DHT22;24243;51.956;5.902;2022-12-29T17:12:35;19.50;52.70
38464;DHT22;24243;51.956;5.902;2022-12-29T17:18:00;19.50;52.70
38464;DHT22;24243;51.956;5.902;2022-12-29T17:20:27;19.50;52.80
38464;DHT22;24243;51.956;5.902;2022-12-29T17:22:54;19.60;52.90
38464;DHT22;24243;51.956;5.902;2022-12-29T17:25:21;19.50;52.90
38464;DHT22;24243;51.956;5.902;2022-12-29T17:27:49;19.60;52.90
38464;DHT22;24243;51.956;5.902;2022-12-29T17:30:17;19.60;53.00
38464;DHT22;24243;51.956;5.902;2022-12-29T17:32:45;19.60;53.00
38464;DHT22;24243;51.956;5.902;2022-12-29T17:35:14;19.60;53.00
38464;DHT22;24243;51.956;5.902;2022-12-29T17:37:40;19.60;53.00
38464;DHT22;24243;51.956;5.902;2022-12-29T17:40:06;19.60;53.10
38464;DHT22;24243;51.956;5.902;2022-12-29T17:42:33;19.60;53.10
38464;DHT22;24243;51.956;5.902;2022-12-29T17:45:00;19.60;53.10
38464;DHT22;24243;51.956;5.902;2022-12-29T17:47:26;19.60;53.20
38464;DHT22;24243;51.956;5.902;2022-12-29T17:49:51;19.60;53.20
38464;DHT22;24243;51.956;5.902;2022-12-29T17:52:17;19.60;53.20